Time;durP1;ratioP1;P1;durP2;ratioP2;P2;SDS_P1;SDS_P2;PMS_P1;PMS_P2;Temp;Humidity;BMP_temperature;BMP_pressure;BME280_temperature;BME280_humidity;BME280_pressure;Samples;Min_cycle;Max_cycle;Signal;HPM_P1;HPM_P2
2021/04/06 00:01:48;;;;;;;7.32;1.20;;;3.90;76.40;;;;;;5072983;28;20039;-69
2021/04/06 00:04:17;;;;;;;11.18;1.90;;;3.90;76.20;;;;;;5073237;28;20028;-71
2021/04/06 00:06:48;;;;;;;7.40;1.40;;;3.90;76.20;;;;;;5072966;28;20024;-70
2021/04/06 00:09:18;;;;;;;4.68;1.00;;;3.80;76.60;;;;;;5074009;28;20106;-70
2021/04/06 00:11:46;;;;;;;7.35;1.52;;;3.70;76.70;;;;;;5074116;28;20078;-70
2021/04/06 00:14:13;;;;;;;7.43;1.55;;;3.60;77.60;;;;;;5074288;28;20512;-70
2021/04/06 00:16:41;;;;;;;6.53;1.48;;;3.60;78.20;;;;;;5072848;28;20426;-70
2021/04/06 00:19:09;;;;;;;8.20;1.63;;;3.50;79.00;;;;;;5074191;28;20029;-69
2021/04/06 00:21:36;;;;;;;9.98;2.13;;;3.40;79.00;;;;;;5074436;28;20078;-69
2021/04/06 00:24:03;;;;;;;5.25;1.60;;;3.30;79.50;;;;;;5071791;28;20048;-69
2021/04/06 00:26:50;;;;;;;7.47;1.58;;;3.30;80.10;;;;;;5073815;28;20063;-70
2021/04/06 00:29:17;;;;;;;10.77;1.98;;;3.20;80.20;;;;;;5072457;28;20126;-70
2021/04/06 00:31:46;;;;;;;6.40;1.40;;;3.20;80.30;;;;;;5072502;28;20037;-69
2021/04/06 00:34:13;;;;;;;5.25;1.20;;;3.20;80.30;;;;;;5073846;28;20036;-70
2021/04/06 00:36:40;;;;;;;6.90;1.50;;;3.20;80.40;;;;;;5072400;28;20025;-69
2021/04/06 00:39:06;;;;;;;5.68;1.40;;;3.20;80.70;;;;;;5072365;28;20050;-69
2021/04/06 00:41:33;;;;;;;7.43;1.45;;;3.20;80.60;;;;;;5072412;28;20055;-70
2021/04/06 00:44:08;;;;;;;9.00;1.90;;;3.30;80.70;;;;;;5073737;28;20031;-69
2021/04/06 00:46:35;;;;;;;5.43;1.30;;;3.30;80.80;;;;;;5072168;28;20078;-70
2021/04/06 00:49:01;;;;;;;10.48;1.85;;;3.30;80.80;;;;;;5072032;28;20037;-69
2021/04/06 00:51:40;;;;;;;5.78;1.67;;;3.40;80.90;;;;;;5073222;28;20047;-70
2021/04/06 00:54:09;;;;;;;8.15;1.65;;;3.40;80.90;;;;;;5072069;28;20081;-69
2021/04/06 00:56:41;;;;;;;6.72;1.90;;;3.40;80.90;;;;;;5073705;28;20039;-69
2021/04/06 00:59:21;;;;;;;10.48;1.77;;;3.40;80.80;;;;;;5071975;28;20154;-69
2021/04/06 01:02:08;;;;;;;7.57;1.63;;;3.50;80.90;;;;;;5073430;28;20553;-69
2021/04/06 01:04:38;;;;;;;6.43;1.67;;;3.60;80.80;;;;;;5072730;28;20036;-69
2021/04/06 01:07:16;;;;;;;11.40;1.90;;;3.60;80.70;;;;;;5073166;28;20027;-69
2021/04/06 01:09:51;;;;;;;14.48;2.03;;;3.60;80.80;;;;;;5072694;28;20036;-70
2021/04/06 01:12:22;;;;;;;9.40;2.20;;;3.50;80.80;;;;;;5071411;28;20037;-69
2021/04/06 01:14:50;;;;;;;8.45;2.05;;;3.50;80.90;;;;;;5071389;28;20036;-69
2021/04/06 01:17:29;;;;;;;11.88;2.10;;;3.50;80.90;;;;;;5071427;28;20032;-69
2021/04/06 01:20:05;;;;;;;9.57;2.10;;;3.40;81.00;;;;;;5073143;28;20456;-69
2021/04/06 01:22:31;;;;;;;13.77;2.40;;;3.40;81.20;;;;;;5071424;28;20036;-69
2021/04/06 01:24:57;;;;;;;11.52;2.25;;;3.40;81.20;;;;;;5071253;28;20036;-69
2021/04/06 01:27:22;;;;;;;10.05;2.33;;;3.40;81.20;;;;;;5073130;28;20350;-69
2021/04/06 01:29:50;;;;;;;13.00;2.20;;;3.40;81.40;;;;;;5073183;28;20028;-69
2021/04/06 01:32:18;;;;;;;12.18;2.20;;;3.40;81.40;;;;;;5071318;28;20017;-69
2021/04/06 01:34:44;;;;;;;12.15;2.03;;;3.40;81.30;;;;;;5071649;28;20037;-69
2021/04/06 01:37:10;;;;;;;10.63;2.33;;;3.40;81.30;;;;;;5072921;28;20108;-70
2021/04/06 01:39:36;;;;;;;14.95;3.08;;;3.40;81.30;;;;;;5071403;28;20024;-69
2021/04/06 01:42:06;;;;;;;13.10;2.65;;;3.40;81.30;;;;;;5072750;28;20032;-69
2021/04/06 01:44:35;;;;;;;9.25;2.17;;;3.40;81.30;;;;;;5071260;28;20137;-69
2021/04/06 01:47:01;;;;;;;10.35;2.10;;;3.40;81.30;;;;;;5072508;28;20126;-69
2021/04/06 01:49:28;;;;;;;11.07;1.88;;;3.40;81.30;;;;;;5072452;28;20028;-69
2021/04/06 01:51:55;;;;;;;13.02;2.67;;;3.30;81.20;;;;;;5072385;28;20081;-69
2021/04/06 01:54:21;;;;;;;15.02;2.25;;;3.30;81.30;;;;;;5072302;28;20099;-69
2021/04/06 01:57:00;;;;;;;10.73;2.40;;;3.30;81.40;;;;;;5071094;28;20028;-69
2021/04/06 01:59:30;;;;;;;14.20;2.83;;;3.40;81.50;;;;;;5071132;28;20024;-69
2021/04/06 02:01:59;;;;;;;17.02;2.72;;;3.40;81.30;;;;;;5072536;28;20028;-69
2021/04/06 02:04:26;;;;;;;13.25;2.40;;;3.40;81.10;;;;;;5072268;28;20024;-69
2021/04/06 02:06:53;;;;;;;12.02;2.50;;;3.40;81.00;;;;;;5071135;28;20017;-69
2021/04/06 02:09:20;;;;;;;10.73;2.15;;;3.40;81.00;;;;;;5071012;28;20044;-69
2021/04/06 02:11:47;;;;;;;12.35;2.10;;;3.40;81.00;;;;;;5072548;28;20476;-70
2021/04/06 02:14:14;;;;;;;13.75;2.40;;;3.50;81.00;;;;;;5071008;28;20025;-69
2021/04/06 02:16:52;;;;;;;10.68;2.50;;;3.50;80.90;;;;;;5072212;28;20028;-69
2021/04/06 02:19:41;;;;;;;13.82;2.55;;;3.50;80.80;;;;;;5070791;28;20109;-69
2021/04/06 02:22:16;;;;;;;10.05;2.53;;;3.50;80.70;;;;;;5072243;28;20029;-69
2021/04/06 02:24:50;;;;;;;18.27;2.22;;;3.40;80.60;;;;;;5070995;28;20040;-69
2021/04/06 02:27:24;;;;;;;14.48;2.70;;;3.40;80.60;;;;;;5072110;28;20134;-69
2021/04/06 02:29:54;;;;;;;9.43;2.80;;;3.40;80.60;;;;;;5070753;28;20115;-69
2021/04/06 02:32:25;;;;;;;14.10;2.65;;;3.40;80.50;;;;;;5070729;28;20033;-70
2021/04/06 02:34:56;;;;;;;9.05;2.35;;;3.40;80.50;;;;;;5072040;28;20392;-70
2021/04/06 02:37:27;;;;;;;13.85;2.20;;;3.30;80.40;;;;;;5070693;28;20511;-70
2021/04/06 02:40:04;;;;;;;8.73;2.10;;;3.30;80.40;;;;;;5070938;28;20033;-70
2021/04/06 02:42:33;;;;;;;7.05;2.08;;;3.30;80.40;;;;;;5072116;28;20392;-69
2021/04/06 02:45:15;;;;;;;16.30;2.50;;;3.30;80.40;;;;;;5070676;28;20377;-69
2021/04/06 02:47:50;;;;;;;8.68;2.40;;;3.20;80.30;;;;;;5074500;28;20025;-69
2021/04/06 02:50:35;;;;;;;10.18;2.35;;;3.20;80.30;;;;;;5074350;28;20537;-69
2021/04/06 02:53:05;;;;;;;9.25;2.17;;;3.20;80.10;;;;;;5075619;28;20029;-69
2021/04/06 02:55:33;;;;;;;9.98;2.22;;;3.20;79.90;;;;;;5075602;28;20029;-69
2021/04/06 02:57:59;;;;;;;8.88;2.03;;;3.10;79.60;;;;;;5074427;28;20032;-69
2021/04/06 03:00:28;;;;;;;10.32;1.90;;;3.10;79.50;;;;;;5074201;28;20021;-69
2021/04/06 03:03:00;;;;;;;10.32;2.03;;;3.20;79.60;;;;;;5074383;28;20032;-69
2021/04/06 03:05:38;;;;;;;10.45;2.10;;;3.20;79.40;;;;;;5074020;28;20098;-69
2021/04/06 03:08:05;;;;;;;8.25;1.67;;;3.30;79.20;;;;;;5075370;28;20099;-69
2021/04/06 03:10:32;;;;;;;6.85;1.52;;;3.30;79.00;;;;;;5073762;28;20062;-69
2021/04/06 03:13:11;;;;;;;7.22;1.77;;;3.30;78.80;;;;;;5075619;28;20032;-69
2021/04/06 03:15:41;;;;;;;6.03;1.50;;;3.30;78.50;;;;;;5074108;28;20028;-69
2021/04/06 03:18:12;;;;;;;7.28;1.52;;;3.20;78.60;;;;;;5074103;28;20025;-69
2021/04/06 03:20:41;;;;;;;4.38;1.38;;;3.20;78.80;;;;;;5075228;28;20039;-71
2021/04/06 03:23:07;;;;;;;7.40;1.80;;;3.10;79.00;;;;;;5073811;28;20090;-69
2021/04/06 03:25:37;;;;;;;8.40;1.60;;;3.10;79.30;;;;;;5073567;28;20094;-69
2021/04/06 03:28:08;;;;;;;9.80;1.50;;;3.00;79.20;;;;;;5074952;28;20040;-69
2021/04/06 03:30:35;;;;;;;9.00;1.23;;;3.00;79.30;;;;;;5073550;28;20032;-69
2021/04/06 03:33:06;;;;;;;6.30;1.40;;;3.00;79.30;;;;;;5073646;28;20057;-70
2021/04/06 03:35:32;;;;;;;7.15;1.42;;;3.00;79.40;;;;;;5073530;28;20117;-71
2021/04/06 03:38:00;;;;;;;4.43;1.30;;;3.00;79.30;;;;;;5073431;28;20029;-69
2021/04/06 03:40:39;;;;;;;4.80;1.10;;;2.90;79.40;;;;;;5073516;28;20500;-69
2021/04/06 03:43:19;;;;;;;7.50;1.50;;;2.80;79.40;;;;;;5073337;28;20511;-70
2021/04/06 03:45:59;;;;;;;7.15;1.85;;;2.80;79.60;;;;;;5073230;28;20123;-69
2021/04/06 03:48:26;;;;;;;3.50;1.10;;;2.70;79.60;;;;;;5073139;28;20107;-69
2021/04/06 03:50:53;;;;;;;11.75;1.63;;;2.70;79.80;;;;;;5073153;28;20032;-69
2021/04/06 03:53:23;;;;;;;5.63;1.08;;;2.60;79.70;;;;;;5074805;28;20038;-69
2021/04/06 03:56:13;;;;;;;8.27;1.80;;;2.60;79.80;;;;;;5074371;28;20484;-70
2021/04/06 03:58:57;;;;;;;4.00;1.23;;;2.60;79.80;;;;;;5073290;28;20024;-69
2021/04/06 04:01:23;;;;;;;5.57;1.10;;;2.60;79.90;;;;;;5072894;28;20077;-69
2021/04/06 04:03:55;;;;;;;6.47;1.42;;;2.60;80.00;;;;;;5072885;28;20029;-69
2021/04/06 04:06:25;;;;;;;6.53;1.38;;;2.60;80.00;;;;;;5072662;28;20029;-69
2021/04/06 04:08:52;;;;;;;10.55;1.75;;;2.60;80.00;;;;;;5072578;28;20075;-69
2021/04/06 04:11:18;;;;;;;6.45;1.33;;;2.60;80.00;;;;;;5072674;28;20087;-69
2021/04/06 04:13:44;;;;;;;9.57;1.65;;;2.60;80.00;;;;;;5072707;28;20046;-69
2021/04/06 04:16:10;;;;;;;6.25;1.60;;;2.60;80.40;;;;;;5074256;28;20103;-69
2021/04/06 04:18:36;;;;;;;9.63;1.60;;;2.60;80.50;;;;;;5072946;28;20021;-69
2021/04/06 04:21:03;;;;;;;8.55;1.70;;;2.60;80.70;;;;;;5072623;28;20026;-69
2021/04/06 04:23:29;;;;;;;8.65;1.85;;;2.60;80.90;;;;;;5073786;28;20446;-69
2021/04/06 04:25:55;;;;;;;6.20;1.60;;;2.50;81.00;;;;;;5072424;28;20039;-69
2021/04/06 04:28:20;;;;;;;10.18;1.67;;;2.50;81.10;;;;;;5073651;28;20488;-69
2021/04/06 04:30:48;;;;;;;5.05;1.40;;;2.60;81.30;;;;;;5072416;28;20031;-69
2021/04/06 04:33:14;;;;;;;8.48;1.40;;;2.60;81.40;;;;;;5072436;28;20511;-70
2021/04/06 04:35:40;;;;;;;10.25;1.55;;;2.70;81.20;;;;;;5073618;28;20069;-69
2021/04/06 04:38:07;;;;;;;8.63;1.73;;;2.70;81.10;;;;;;5072608;28;20509;-69
2021/04/06 04:40:34;;;;;;;7.18;1.33;;;2.70;80.90;;;;;;5072089;28;20031;-69
2021/04/06 04:43:00;;;;;;;7.38;1.20;;;2.70;80.80;;;;;;5073312;28;20097;-69
2021/04/06 04:45:26;;;;;;;5.90;1.38;;;2.80;80.70;;;;;;5071875;28;20415;-69
2021/04/06 04:47:52;;;;;;;4.50;1.30;;;2.80;80.60;;;;;;5072070;28;20032;-69
2021/04/06 04:50:20;;;;;;;6.45;1.30;;;2.80;80.50;;;;;;5071911;28;20420;-70
2021/04/06 04:52:49;;;;;;;5.85;1.50;;;2.80;80.50;;;;;;5073120;28;20056;-69
2021/04/06 04:55:18;;;;;;;4.78;1.13;;;2.70;80.50;;;;;;5071972;28;20119;-69
2021/04/06 04:57:44;;;;;;;4.50;0.93;;;2.70;80.50;;;;;;5073154;28;20138;-69
2021/04/06 05:00:12;;;;;;;10.20;1.27;;;2.70;80.50;;;;;;5071671;28;20024;-69
2021/04/06 05:02:38;;;;;;;6.68;1.35;;;2.70;80.60;;;;;;5071771;28;20392;-69
2021/04/06 05:05:05;;;;;;;3.80;1.38;;;2.80;80.60;;;;;;5073073;28;20029;-69
2021/04/06 05:07:31;;;;;;;2.80;1.30;;;2.90;80.50;;;;;;5072943;28;20500;-70
2021/04/06 05:09:57;;;;;;;8.52;1.55;;;2.90;80.30;;;;;;5072522;28;20120;-69
2021/04/06 05:12:22;;;;;;;5.97;1.77;;;3.00;80.30;;;;;;5073099;28;20020;-69
2021/04/06 05:14:48;;;;;;;6.78;1.52;;;3.00;80.20;;;;;;5073227;28;20047;-69
2021/04/06 05:17:15;;;;;;;7.65;1.60;;;2.90;80.20;;;;;;5072480;28;20060;-69
2021/04/06 05:19:41;;;;;;;3.97;1.42;;;2.90;80.30;;;;;;5072101;28;20460;-69
2021/04/06 05:22:06;;;;;;;6.88;1.55;;;2.80;80.30;;;;;;5071311;28;20025;-69
2021/04/06 05:24:32;;;;;;;6.32;1.48;;;2.80;80.40;;;;;;5072420;28;20059;-69
2021/04/06 05:26:58;;;;;;;9.38;2.00;;;2.90;80.40;;;;;;5072270;28;20028;-69
2021/04/06 05:29:24;;;;;;;5.43;1.77;;;2.90;80.50;;;;;;5072514;28;20028;-69
2021/04/06 05:31:49;;;;;;;5.53;1.40;;;2.80;80.50;;;;;;5072423;28;20380;-69
2021/04/06 05:34:15;;;;;;;10.82;1.40;;;2.80;80.60;;;;;;5072648;28;20124;-69
2021/04/06 05:36:41;;;;;;;5.88;1.42;;;2.80;80.70;;;;;;5072444;28;20032;-69
2021/04/06 05:39:07;;;;;;;11.15;1.73;;;2.80;80.70;;;;;;5072451;28;20028;-69
2021/04/06 05:41:34;;;;;;;6.07;1.60;;;2.70;80.70;;;;;;5071360;28;20400;-69
2021/04/06 05:44:02;;;;;;;6.95;1.88;;;2.70;80.70;;;;;;5071003;28;20028;-69
2021/04/06 05:46:35;;;;;;;6.82;1.40;;;2.70;80.80;;;;;;5072736;28;20063;-70
2021/04/06 05:49:06;;;;;;;5.10;1.33;;;2.70;80.80;;;;;;5072442;28;20082;-68
2021/04/06 05:51:31;;;;;;;6.10;1.55;;;2.80;80.80;;;;;;5070928;28;20394;-68
2021/04/06 05:53:57;;;;;;;6.55;1.40;;;2.80;80.80;;;;;;5071197;28;20449;-68
2021/04/06 05:56:23;;;;;;;5.50;1.33;;;2.80;80.80;;;;;;5072600;28;20036;-68
2021/04/06 05:58:49;;;;;;;5.38;1.40;;;2.80;80.70;;;;;;5072583;28;20150;-67
2021/04/06 06:01:15;;;;;;;13.85;2.33;;;2.80;80.60;;;;;;5070943;28;20028;-67
2021/04/06 06:03:41;;;;;;;4.85;1.52;;;2.80;80.50;;;;;;5070872;28;20032;-67
2021/04/06 06:06:07;;;;;;;8.73;1.85;;;2.90;80.50;;;;;;5070959;28;20028;-68
2021/04/06 06:08:34;;;;;;;4.80;1.40;;;2.90;80.40;;;;;;5070808;28;20031;-68
2021/04/06 06:11:04;;;;;;;4.53;1.35;;;3.00;80.30;;;;;;5070418;28;20500;-68
2021/04/06 06:13:34;;;;;;;8.48;1.63;;;3.10;80.70;;;;;;5070646;28;20029;-68
2021/04/06 06:16:20;;;;;;;6.07;1.27;;;3.20;79.90;;;;;;5071818;28;20444;-68
2021/04/06 06:18:58;;;;;;;7.45;1.50;;;3.20;79.70;;;;;;5070685;28;20029;-68
2021/04/06 06:21:43;;;;;;;9.48;2.00;;;3.20;79.40;;;;;;5072478;28;20033;-67
2021/04/06 06:24:11;;;;;;;7.30;1.70;;;3.20;79.30;;;;;;5074479;28;20391;-67
2021/04/06 06:26:37;;;;;;;6.82;1.70;;;3.20;79.40;;;;;;5075862;28;20104;-68
2021/04/06 06:29:12;;;;;;;11.80;2.47;;;3.20;79.40;;;;;;5074375;28;20028;-68
2021/04/06 06:31:44;;;;;;;6.57;1.60;;;3.30;79.30;;;;;;5074335;28;20021;-68
2021/04/06 06:34:28;;;;;;;3.67;1.23;;;3.30;79.10;;;;;;5074421;28;20086;-68
2021/04/06 06:37:12;;;;;;;8.93;1.80;;;3.40;79.00;;;;;;5074453;28;20373;-69
2021/04/06 06:39:40;;;;;;;5.97;2.08;;;3.50;78.80;;;;;;5075561;28;20029;-69
2021/04/06 06:42:11;;;;;;;8.52;2.00;;;3.50;78.80;;;;;;5074138;28;20055;-68
2021/04/06 06:44:38;;;;;;;6.85;1.83;;;3.60;78.50;;;;;;5074214;28;20107;-68
2021/04/06 06:47:11;;;;;;;5.65;1.92;;;3.60;78.30;;;;;;5074099;28;20051;-69
2021/04/06 06:49:40;;;;;;;4.93;1.67;;;3.60;78.00;;;;;;5074202;28;20094;-69
2021/04/06 06:52:28;;;;;;;8.93;1.73;;;3.70;78.10;;;;;;5075242;28;20127;-68
2021/04/06 06:54:58;;;;;;;9.77;1.85;;;3.70;77.90;;;;;;5075326;28;20059;-69
2021/04/06 06:57:32;;;;;;;6.65;1.73;;;3.80;77.90;;;;;;5073973;28;20033;-69
2021/04/06 07:00:07;;;;;;;6.07;1.65;;;3.90;77.50;;;;;;5073911;28;20028;-68
2021/04/06 07:02:33;;;;;;;8.77;1.60;;;4.00;77.00;;;;;;5073745;28;20040;-68
2021/04/06 07:05:10;;;;;;;9.15;2.47;;;4.10;76.80;;;;;;5074973;28;20478;-68
2021/04/06 07:08:02;;;;;;;7.80;1.70;;;4.10;76.60;;;;;;5074986;28;20473;-69
2021/04/06 07:10:34;;;;;;;5.72;1.73;;;4.20;76.40;;;;;;5074743;28;20028;-68
2021/04/06 07:13:06;;;;;;;9.02;1.50;;;4.20;76.10;;;;;;5073537;28;20119;-69
2021/04/06 07:15:34;;;;;;;7.35;1.27;;;4.20;76.10;;;;;;5074821;28;20429;-68
2021/04/06 07:18:05;;;;;;;6.72;1.30;;;4.10;76.10;;;;;;5073503;28;20035;-68
2021/04/06 07:20:32;;;;;;;5.43;1.50;;;4.00;76.20;;;;;;5074655;28;20050;-68
2021/04/06 07:23:02;;;;;;;10.05;2.03;;;3.90;76.20;;;;;;5075220;28;20106;-68
2021/04/06 07:25:28;;;;;;;7.00;1.60;;;3.80;76.40;;;;;;5073186;28;20039;-68
2021/04/06 07:27:55;;;;;;;9.02;1.75;;;3.80;76.30;;;;;;5074523;28;20507;-68
2021/04/06 07:30:22;;;;;;;6.45;1.73;;;3.80;76.60;;;;;;5074657;28;20103;-68
2021/04/06 07:32:50;;;;;;;10.63;1.80;;;3.80;76.70;;;;;;5074658;28;20082;-68
2021/04/06 07:35:16;;;;;;;6.88;1.63;;;3.80;76.80;;;;;;5073184;28;20051;-69
2021/04/06 07:37:44;;;;;;;8.45;1.80;;;3.80;76.80;;;;;;5073481;28;20033;-69
2021/04/06 07:40:12;;;;;;;10.43;1.65;;;3.90;76.80;;;;;;5073314;28;20032;-69
2021/04/06 07:42:40;;;;;;;5.70;1.63;;;4.00;76.40;;;;;;5073185;28;20033;-68
2021/04/06 07:45:30;;;;;;;6.55;2.03;;;4.00;76.40;;;;;;5074457;28;20025;-69
2021/04/06 07:47:57;;;;;;;10.77;1.73;;;4.20;76.30;;;;;;5072679;28;20050;-69
2021/04/06 07:50:43;;;;;;;4.65;1.45;;;4.40;75.60;;;;;;5073078;28;20358;-69
2021/04/06 07:53:21;;;;;;;4.90;1.50;;;4.50;74.70;;;;;;5073086;28;20035;-68
2021/04/06 07:55:47;;;;;;;9.05;1.70;;;4.50;74.30;;;;;;5072960;28;20056;-69
2021/04/06 07:58:45;;;;;;;4.65;1.67;;;4.60;74.10;;;;;;5073011;28;20016;-69
2021/04/06 08:01:12;;;;;;;7.03;1.58;;;4.60;74.00;;;;;;5073299;28;20037;-69
2021/04/06 08:03:50;;;;;;;9.63;1.65;;;4.60;74.00;;;;;;5073946;28;20055;-68
2021/04/06 08:06:20;;;;;;;7.20;1.38;;;4.60;73.70;;;;;;5072645;28;20037;-67
2021/04/06 08:08:46;;;;;;;4.45;1.23;;;4.50;73.20;;;;;;5073695;28;20070;-67
2021/04/06 08:11:12;;;;;;;4.72;1.55;;;4.50;73.40;;;;;;5073716;28;20048;-68
2021/04/06 08:13:39;;;;;;;2.90;1.40;;;4.50;73.20;;;;;;5072458;28;20119;-67
2021/04/06 08:16:11;;;;;;;3.75;1.00;;;4.40;73.70;;;;;;5072352;28;20492;-68
2021/04/06 08:18:51;;;;;;;5.88;1.80;;;4.40;73.50;;;;;;5073667;28;20024;-67
2021/04/06 08:21:18;;;;;;;3.58;1.23;;;4.50;73.50;;;;;;5072072;28;20131;-67
2021/04/06 08:23:46;;;;;;;4.30;1.20;;;4.50;72.10;;;;;;5073604;28;20059;-67
2021/04/06 08:26:35;;;;;;;5.28;1.60;;;4.60;71.40;;;;;;5072234;28;20027;-67
2021/04/06 08:29:22;;;;;;;5.28;1.45;;;4.70;71.30;;;;;;5073349;28;20052;-67
2021/04/06 08:32:12;;;;;;;4.90;1.20;;;4.70;70.80;;;;;;5072304;28;20210;-67
2021/04/06 08:34:49;;;;;;;3.63;1.25;;;4.90;70.50;;;;;;5072320;28;20351;-67
2021/04/06 08:37:17;;;;;;;7.32;1.10;;;5.00;70.20;;;;;;5072263;28;20475;-67
2021/04/06 08:39:43;;;;;;;5.82;1.20;;;5.10;68.90;;;;;;5072058;28;20036;-67
2021/04/06 08:42:14;;;;;;;3.88;1.10;;;5.00;68.80;;;;;;5073853;28;20123;-67
2021/04/06 08:44:40;;;;;;;3.92;1.20;;;4.90;69.20;;;;;;5071514;28;20035;-67
2021/04/06 08:47:06;;;;;;;6.13;1.13;;;4.90;69.20;;;;;;5073659;28;20025;-67
2021/04/06 08:49:40;;;;;;;3.25;1.52;;;4.90;68.80;;;;;;5071820;28;20016;-67
2021/04/06 08:52:12;;;;;;;4.45;0.90;;;5.00;69.60;;;;;;5073363;28;20108;-67
2021/04/06 08:54:38;;;;;;;3.72;1.02;;;5.10;70.00;;;;;;5073321;28;20025;-67
2021/04/06 08:57:06;;;;;;;4.60;1.48;;;5.10;70.00;;;;;;5071908;28;20116;-67
2021/04/06 08:59:37;;;;;;;4.35;1.00;;;5.30;69.70;;;;;;5073215;28;20056;-68
2021/04/06 09:02:12;;;;;;;4.30;1.00;;;5.30;69.00;;;;;;5071887;28;20034;-70
2021/04/06 09:04:41;;;;;;;6.32;1.30;;;5.40;68.80;;;;;;5072712;28;20028;-67
2021/04/06 09:07:21;;;;;;;3.03;1.00;;;5.40;68.60;;;;;;5071481;28;20440;-68
2021/04/06 09:09:50;;;;;;;2.95;1.00;;;5.30;68.40;;;;;;5072907;28;20041;-69
2021/04/06 09:12:15;;;;;;;1.92;1.00;;;5.10;68.80;;;;;;5072938;28;20032;-69
2021/04/06 09:14:42;;;;;;;2.50;0.85;;;5.00;68.00;;;;;;5071534;28;20021;-67
2021/04/06 09:17:07;;;;;;;2.25;0.80;;;4.90;68.60;;;;;;5071429;28;20039;-67
2021/04/06 09:19:35;;;;;;;4.10;1.02;;;4.80;69.00;;;;;;5071496;28;20115;-67
2021/04/06 09:22:04;;;;;;;2.85;0.85;;;4.80;69.60;;;;;;5071618;28;20042;-67
2021/04/06 09:24:30;;;;;;;1.75;0.80;;;4.90;69.40;;;;;;5071208;28;20071;-67
2021/04/06 09:26:57;;;;;;;3.53;1.00;;;5.00;69.80;;;;;;5072561;28;20468;-68
2021/04/06 09:29:25;;;;;;;5.18;1.10;;;5.10;69.20;;;;;;5071162;28;20025;-66
2021/04/06 09:31:56;;;;;;;2.85;1.10;;;5.30;69.30;;;;;;5071084;28;20036;-67
2021/04/06 09:34:28;;;;;;;3.00;1.00;;;5.40;68.50;;;;;;5071184;28;20077;-67
2021/04/06 09:37:18;;;;;;;2.95;1.02;;;5.60;67.90;;;;;;5072931;28;20028;-68
2021/04/06 09:39:48;;;;;;;3.70;0.90;;;5.80;66.80;;;;;;5072009;28;20051;-67
2021/04/06 09:42:15;;;;;;;8.75;1.30;;;6.00;66.80;;;;;;5072714;28;20029;-67
2021/04/06 09:44:42;;;;;;;5.57;1.52;;;6.20;65.00;;;;;;5071002;28;20396;-67
2021/04/06 09:47:14;;;;;;;5.20;1.20;;;6.20;65.00;;;;;;5072564;28;20107;-67
2021/04/06 09:49:45;;;;;;;5.28;1.30;;;6.10;66.00;;;;;;5071310;28;20432;-70
2021/04/06 09:52:17;;;;;;;3.80;0.95;;;5.80;68.50;;;;;;5072558;28;20036;-70
2021/04/06 09:54:48;;;;;;;2.83;1.10;;;5.60;70.00;;;;;;5072968;28;20033;-69
2021/04/06 09:57:14;;;;;;;5.70;1.10;;;5.40;70.20;;;;;;5076002;28;20039;-69
2021/04/06 09:59:54;;;;;;;2.92;0.90;;;5.30;69.10;;;;;;5075354;28;20100;-69
2021/04/06 10:02:22;;;;;;;2.38;0.75;;;5.20;69.30;;;;;;5076594;28;20561;-69
2021/04/06 10:04:50;;;;;;;2.20;0.60;;;5.20;68.60;;;;;;5076453;28;20036;-70
2021/04/06 10:07:27;;;;;;;2.85;1.02;;;5.20;69.10;;;;;;5075627;28;20394;-69
2021/04/06 10:09:59;;;;;;;3.55;1.00;;;5.30;68.30;;;;;;5076349;28;20392;-68
2021/04/06 10:12:26;;;;;;;3.58;1.00;;;5.30;68.20;;;;;;5074843;28;20043;-67
2021/04/06 10:14:52;;;;;;;2.72;0.80;;;5.30;68.50;;;;;;5076530;28;20456;-67
2021/04/06 10:17:32;;;;;;;3.13;0.80;;;5.40;68.50;;;;;;5074516;28;20037;-67
2021/04/06 10:20:01;;;;;;;3.95;0.80;;;5.50;68.60;;;;;;5074578;28;20508;-68
2021/04/06 10:22:37;;;;;;;2.38;0.80;;;5.60;68.50;;;;;;5074641;28;20032;-68
2021/04/06 10:25:06;;;;;;;5.68;1.65;;;5.70;68.30;;;;;;5076347;28;20067;-67
2021/04/06 10:27:47;;;;;;;3.40;1.15;;;5.90;68.40;;;;;;5075022;28;20047;-67
2021/04/06 10:30:26;;;;;;;5.03;1.20;;;6.10;66.70;;;;;;5075716;28;20024;-68
2021/04/06 10:33:01;;;;;;;4.35;1.10;;;6.30;66.80;;;;;;5074526;28;20036;-67
2021/04/06 10:35:29;;;;;;;4.43;0.98;;;6.50;65.30;;;;;;5074541;28;20452;-67
2021/04/06 10:38:01;;;;;;;5.38;1.30;;;6.60;64.70;;;;;;5073232;28;20028;-67
2021/04/06 10:40:37;;;;;;;1.58;0.88;;;6.70;64.90;;;;;;5075719;28;20029;-68
2021/04/06 10:43:16;;;;;;;2.33;0.80;;;6.70;64.80;;;;;;5075570;28;20024;-68
2021/04/06 10:46:08;;;;;;;4.35;1.23;;;6.90;64.90;;;;;;5074248;28;20480;-68
2021/04/06 10:48:41;;;;;;;2.97;1.10;;;7.20;64.70;;;;;;5075203;28;20365;-67
2021/04/06 10:51:21;;;;;;;8.05;1.83;;;7.40;63.10;;;;;;5073939;28;20035;-68
2021/04/06 10:53:48;;;;;;;5.28;1.10;;;7.40;61.50;;;;;;5075426;28;20036;-67
2021/04/06 10:56:19;;;;;;;5.00;1.20;;;7.00;61.80;;;;;;5073781;28;20464;-67
2021/04/06 10:58:51;;;;;;;3.20;1.00;;;6.70;63.30;;;;;;5073926;28;20082;-67
2021/04/06 11:01:21;;;;;;;4.00;0.90;;;6.30;65.00;;;;;;5075444;28;20025;-67
2021/04/06 11:03:59;;;;;;;4.65;1.15;;;6.00;66.00;;;;;;5075270;28;20033;-67
2021/04/06 11:06:37;;;;;;;3.83;0.98;;;5.70;67.10;;;;;;5073547;28;20020;-67
2021/04/06 11:09:21;;;;;;;3.90;1.55;;;5.50;67.60;;;;;;5075174;28;20024;-68
2021/04/06 11:11:49;;;;;;;;;;;5.40;68.00;;;;;;5075253;28;20036;-68
2021/04/06 11:14:17;;;;;;;3.15;1.00;;;5.40;68.40;;;;;;5075095;28;20386;-67
2021/04/06 11:16:45;;;;;;;6.80;1.30;;;5.40;68.20;;;;;;5074875;28;20115;-67
2021/04/06 11:19:13;;;;;;;2.83;0.75;;;5.60;67.80;;;;;;5074984;28;20032;-67
2021/04/06 11:21:45;;;;;;;5.40;1.33;;;5.80;67.70;;;;;;5074776;28;20040;-68
2021/04/06 11:24:11;;;;;;;2.17;0.80;;;6.00;66.40;;;;;;5074797;28;20037;-67
2021/04/06 11:26:37;;;;;;;6.22;1.60;;;6.20;65.70;;;;;;5074882;28;20442;-67
2021/04/06 11:29:05;;;;;;;6.80;1.30;;;6.50;65.10;;;;;;5073619;28;20108;-68
2021/04/06 11:31:32;;;;;;;3.88;1.20;;;6.60;63.10;;;;;;5074771;28;20037;-67
2021/04/06 11:33:58;;;;;;;3.05;0.93;;;6.80;63.00;;;;;;5073414;28;20395;-67
2021/04/06 11:36:24;;;;;;;4.07;0.95;;;7.00;62.20;;;;;;5074687;28;20035;-68
2021/04/06 11:38:50;;;;;;;4.75;1.00;;;7.20;62.90;;;;;;5073380;28;20029;-71
2021/04/06 11:41:17;;;;;;;2.75;0.57;;;7.20;62.10;;;;;;5074287;28;20119;-68
2021/04/06 11:47:06;;;;;;;4.50;0.70;;;6.90;62.40;;;;;;5074583;28;20063;-68
2021/04/06 11:49:32;;;;;;;2.00;0.70;;;6.40;63.50;;;;;;5074400;28;20140;-68
2021/04/06 11:51:58;;;;;;;2.38;0.50;;;6.00;64.20;;;;;;5074456;28;20127;-68
2021/04/06 11:54:24;;;;;;;1.92;0.52;;;5.80;65.10;;;;;;5073032;28;20029;-68
2021/04/06 11:56:51;;;;;;;0.50;0.28;;;5.50;65.60;;;;;;5072727;28;20175;-68
2021/04/06 11:59:17;;;;;;;1.23;0.40;;;5.30;65.90;;;;;;5074233;28;20491;-70
2021/04/06 12:01:43;;;;;;;1.50;0.43;;;5.20;66.30;;;;;;5072711;28;20116;-68
2021/04/06 12:04:10;;;;;;;1.05;0.40;;;5.10;66.60;;;;;;5072689;28;20020;-68
2021/04/06 12:06:36;;;;;;;0.55;0.32;;;5.00;66.80;;;;;;5074170;28;20024;-68
2021/04/06 12:09:03;;;;;;;1.38;0.30;;;4.90;67.00;;;;;;5073936;28;20369;-68
2021/04/06 12:11:29;;;;;;;1.23;0.60;;;4.90;67.30;;;;;;5072310;28;20045;-70
2021/04/06 12:13:55;;;;;;;2.75;1.00;;;4.90;67.90;;;;;;5073705;28;20355;-68
2021/04/06 12:16:20;;;;;;;1.45;0.50;;;5.00;67.10;;;;;;5072188;28;20021;-68
2021/04/06 12:18:46;;;;;;;1.05;0.50;;;5.10;67.50;;;;;;5072863;28;20099;-68
2021/04/06 12:21:12;;;;;;;3.58;0.50;;;5.20;67.00;;;;;;5072135;28;20391;-68
2021/04/06 12:23:39;;;;;;;1.42;0.60;;;5.40;67.00;;;;;;5072157;28;20052;-69
2021/04/06 12:26:06;;;;;;;1.35;0.50;;;5.50;65.90;;;;;;5072126;28;20028;-68
2021/04/06 12:28:32;;;;;;;3.33;0.70;;;5.50;65.70;;;;;;5073817;28;20052;-67
2021/04/06 12:30:58;;;;;;;3.97;1.10;;;5.70;66.20;;;;;;5072487;28;20115;-69
2021/04/06 12:33:24;;;;;;;3.83;0.90;;;5.90;66.00;;;;;;5072540;28;20463;-68
2021/04/06 12:35:50;;;;;;;2.75;0.90;;;6.00;66.00;;;;;;5073796;28;20369;-68
2021/04/06 12:38:15;;;;;;;4.18;0.98;;;6.20;65.40;;;;;;5072069;28;20036;-68
2021/04/06 12:40:41;;;;;;;3.33;0.90;;;6.30;65.20;;;;;;5072024;28;20569;-67
2021/04/06 12:43:07;;;;;;;3.95;1.20;;;6.50;65.40;;;;;;5071826;28;20021;-69
2021/04/06 12:45:33;;;;;;;4.68;1.23;;;6.80;65.20;;;;;;5073194;28;20064;-68
2021/04/06 12:47:58;;;;;;;2.97;1.30;;;7.00;63.50;;;;;;5072105;28;20032;-68
2021/04/06 12:50:24;;;;;;;5.75;1.75;;;7.10;63.30;;;;;;5073097;28;20048;-68
2021/04/06 12:52:50;;;;;;;6.22;0.80;;;7.10;62.90;;;;;;5071748;28;20066;-69
2021/04/06 12:55:16;;;;;;;4.57;0.93;;;7.00;63.20;;;;;;5073247;28;20078;-68
2021/04/06 12:57:42;;;;;;;1.30;0.60;;;6.80;63.50;;;;;;5071790;28;20029;-68
2021/04/06 13:00:09;;;;;;;1.27;0.50;;;6.40;64.30;;;;;;5071589;28;20142;-68
2021/04/06 13:02:35;;;;;;;1.55;0.52;;;6.00;64.20;;;;;;5072996;28;20033;-68
2021/04/06 13:05:05;;;;;;;2.25;0.70;;;5.80;64.90;;;;;;5071505;28;20471;-68
2021/04/06 13:07:31;;;;;;;1.42;0.80;;;5.50;65.00;;;;;;5071641;28;20135;-68
2021/04/06 13:09:57;;;;;;;2.67;0.68;;;5.50;64.60;;;;;;5073053;28;20064;-68
2021/04/06 13:12:23;;;;;;;2.75;0.55;;;5.40;64.80;;;;;;5072671;28;20047;-68
2021/04/06 13:14:49;;;;;;;1.67;0.60;;;5.40;63.50;;;;;;5071757;28;20177;-68